Time;durP1;ratioP1;P1;durP2;ratioP2;P2;SDS_P1;SDS_P2;PMS_P1;PMS_P2;Temp;Humidity;BMP_temperature;BMP_pressure;BME280_temperature;BME280_humidity;BME280_pressure;Samples;Min_cycle;Max_cycle;Signal;HPM_P1;HPM_P2
2022/01/26 00:07:05;;;;;;;26.70;12.48;;;3.20;99.90;;;;;;5108598;28;20035;-95
2022/01/26 00:09:31;;;;;;;26.98;12.32;;;3.10;99.90;;;;;;5092519;28;20028;-94
2022/01/26 00:11:57;;;;;;;31.20;12.48;;;3.10;99.90;;;;;;5092970;28;20058;-95
2022/01/26 00:14:24;;;;;;;30.20;12.50;;;3.10;99.90;;;;;;5074869;28;20036;-95
2022/01/26 00:16:53;;;;;;;31.80;13.10;;;3.00;99.90;;;;;;5091263;28;20021;-94
2022/01/26 00:22:34;;;;;;;37.40;13.55;;;3.00;99.90;;;;;;5109729;28;20077;-95
2022/01/26 00:25:41;;;;;;;36.92;13.80;;;3.00;99.90;;;;;;5092120;28;20054;-95
2022/01/26 00:38:42;;;;;;;40.03;15.20;;;2.90;99.90;;;;;;5095489;28;20069;-94
2022/01/26 00:41:15;;;;;;;43.10;15.48;;;2.90;99.90;;;;;;5078204;28;20036;-95
2022/01/26 00:43:47;;;;;;;42.55;17.02;;;2.90;99.90;;;;;;5078916;28;20066;-94
2022/01/26 00:46:14;;;;;;;34.60;13.80;;;2.90;99.90;;;;;;5079500;28;20043;-93
2022/01/26 00:48:41;;;;;;;48.00;17.73;;;2.90;99.90;;;;;;5078287;28;20027;-93
2022/01/26 00:51:08;;;;;;;53.28;20.00;;;2.90;99.90;;;;;;5078216;28;20073;-94
2022/01/26 00:53:42;;;;;;;56.13;19.85;;;3.00;99.90;;;;;;5078095;28;20040;-93
2022/01/26 00:56:07;;;;;;;66.80;20.90;;;3.10;99.90;;;;;;5077256;28;20020;-93
2022/01/26 00:58:33;;;;;;;57.85;21.85;;;3.20;99.90;;;;;;5076440;28;20062;-93
2022/01/26 01:01:01;;;;;;;57.65;21.20;;;3.20;99.90;;;;;;5076069;28;20024;-93
2022/01/26 01:03:29;;;;;;;64.93;22.95;;;3.30;99.90;;;;;;5076869;28;20088;-92
2022/01/26 01:06:02;;;;;;;67.07;23.60;;;3.30;99.90;;;;;;5077707;28;20024;-93
2022/01/26 01:08:28;;;;;;;56.95;21.00;;;3.30;99.90;;;;;;5077429;28;20087;-92
2022/01/26 01:10:56;;;;;;;56.72;22.10;;;3.30;99.90;;;;;;5077344;28;20055;-94
2022/01/26 01:13:31;;;;;;;53.50;20.38;;;3.30;99.90;;;;;;5076814;28;20081;-92
2022/01/26 01:15:57;;;;;;;55.08;22.08;;;3.30;99.90;;;;;;5083023;28;20049;-94
2022/01/26 01:21:20;;;;;;;42.28;18.88;;;3.30;99.90;;;;;;5097555;28;20020;-92
2022/01/26 01:34:06;;;;;;;45.83;17.65;;;3.30;99.90;;;;;;5106335;28;20035;-93
2022/01/26 01:36:35;;;;;;;37.08;15.63;;;3.30;99.90;;;;;;5083296;28;20081;-94
2022/01/26 01:39:01;;;;;;;39.65;14.45;;;3.20;99.90;;;;;;5081125;28;20032;-93
2022/01/26 01:41:26;;;;;;;39.33;15.93;;;3.20;99.90;;;;;;5083008;28;20099;-93
2022/01/26 01:43:52;;;;;;;35.67;14.68;;;3.20;99.90;;;;;;5083574;28;20031;-93
2022/01/26 01:46:19;;;;;;;44.42;15.07;;;3.10;99.90;;;;;;5083325;28;20072;-93
2022/01/26 01:48:45;;;;;;;41.50;15.85;;;3.10;99.90;;;;;;5082674;28;20460;-92
2022/01/26 01:51:15;;;;;;;41.28;16.00;;;3.10;99.90;;;;;;5082845;28;20038;-93
2022/01/26 01:53:42;;;;;;;39.33;15.57;;;3.10;99.90;;;;;;5084522;28;20100;-92
2022/01/26 01:56:11;;;;;;;37.72;15.13;;;3.10;99.90;;;;;;5082692;28;20073;-94
2022/01/26 01:58:38;;;;;;;36.65;15.23;;;3.10;99.90;;;;;;5082798;28;20260;-91
2022/01/26 02:01:05;;;;;;;38.65;16.25;;;3.10;99.90;;;;;;5081840;28;20033;-94
2022/01/26 02:03:30;;;;;;;44.10;16.85;;;3.10;99.90;;;;;;5082576;28;20070;-96
2022/01/26 02:05:56;;;;;;;44.67;16.58;;;3.10;99.90;;;;;;5082146;28;20032;-91
2022/01/26 02:08:22;;;;;;;46.47;18.83;;;3.10;99.90;;;;;;5085410;28;20024;-93
2022/01/26 02:10:49;;;;;;;45.30;18.98;;;3.10;99.90;;;;;;5094433;28;20058;-96
2022/01/26 02:13:26;;;;;;;37.28;16.17;;;3.10;99.90;;;;;;5098815;28;20035;-92
2022/01/26 02:16:05;;;;;;;42.08;18.52;;;3.10;99.90;;;;;;5092054;28;20066;-92
2022/01/26 02:18:44;;;;;;;58.65;20.70;;;3.10;99.90;;;;;;5097472;28;20021;-92
2022/01/26 02:54:25;;;;;;;41.13;18.98;;;3.40;99.90;;;;;;5105304;28;20020;-95
2022/01/26 02:59:50;;;;;;;47.60;18.27;;;3.50;99.90;;;;;;5106001;28;20096;-95
2022/01/26 03:02:41;;;;;;;42.72;21.08;;;3.50;99.90;;;;;;5092147;28;20031;-92
2022/01/26 03:05:07;;;;;;;42.05;18.48;;;3.60;99.90;;;;;;5105368;28;20092;-92
2022/01/26 03:10:09;;;;;;;40.53;18.10;;;3.60;99.90;;;;;;5107284;28;20044;-94
2022/01/26 03:12:59;;;;;;;39.45;17.77;;;3.70;99.90;;;;;;5090427;28;20020;-93
2022/01/26 03:15:31;;;;;;;41.28;17.58;;;3.80;99.90;;;;;;5083288;28;20024;-94
2022/01/26 03:18:30;;;;;;;40.40;18.15;;;3.80;99.90;;;;;;5086488;28;20036;-93
2022/01/26 03:20:58;;;;;;;40.80;18.55;;;3.90;99.90;;;;;;5093605;28;20025;-93
2022/01/26 03:36:44;;;;;;;41.08;15.73;;;4.10;99.90;;;;;;5108079;28;20095;-94
2022/01/26 03:39:15;;;;;;;31.20;14.23;;;4.20;99.90;;;;;;5110935;28;20054;-95
2022/01/26 03:41:45;;;;;;;31.42;14.35;;;4.20;99.90;;;;;;5087214;28;20123;-93
2022/01/26 03:44:11;;;;;;;29.88;14.00;;;4.20;99.90;;;;;;5094165;28;20028;-93
2022/01/26 03:46:37;;;;;;;33.83;14.38;;;4.30;99.90;;;;;;5092576;28;20036;-95
2022/01/26 03:49:06;;;;;;;30.55;14.05;;;4.30;99.90;;;;;;5091461;28;20020;-93
2022/01/26 03:51:33;;;;;;;28.75;13.50;;;4.30;99.90;;;;;;5090601;28;20099;-93
2022/01/26 03:53:59;;;;;;;30.70;14.48;;;4.40;99.90;;;;;;5087435;28;20462;-94
2022/01/26 03:56:25;;;;;;;26.48;12.93;;;4.40;99.90;;;;;;5092919;28;20047;-94
2022/01/26 03:58:51;;;;;;;29.33;13.45;;;4.40;99.90;;;;;;5090732;28;20021;-93
2022/01/26 04:01:17;;;;;;;29.67;14.38;;;4.40;99.90;;;;;;5089803;28;20059;-95
2022/01/26 04:03:43;;;;;;;26.20;13.65;;;4.40;99.90;;;;;;5089587;28;20028;-95
2022/01/26 04:06:08;;;;;;;33.08;14.45;;;4.50;99.90;;;;;;5092795;28;20012;-94
2022/01/26 04:08:36;;;;;;;28.00;13.23;;;4.50;99.90;;;;;;5097075;28;20032;-94
2022/01/26 04:13:35;;;;;;;30.17;12.45;;;4.50;99.90;;;;;;5107611;28;20024;-94
2022/01/26 04:16:06;;;;;;;28.65;13.43;;;4.50;99.90;;;;;;5089722;28;20024;-95
2022/01/26 04:18:36;;;;;;;26.58;11.07;;;4.50;99.90;;;;;;5089254;28;20028;-94
2022/01/26 04:21:12;;;;;;;31.70;12.18;;;4.50;99.90;;;;;;5088252;28;20503;-94
2022/01/26 04:26:34;;;;;;;27.88;10.82;;;4.50;99.90;;;;;;5062654;28;20473;-95
2022/01/26 04:29:06;;;;;;;24.60;9.52;;;4.50;99.90;;;;;;5088451;28;20028;-95
2022/01/26 04:31:32;;;;;;;30.67;11.38;;;4.50;99.90;;;;;;5091815;28;20036;-94
2022/01/26 04:33:59;;;;;;;27.10;10.55;;;4.60;99.90;;;;;;5085710;28;20038;-94
2022/01/26 04:36:34;;;;;;;28.63;11.68;;;4.50;99.90;;;;;;5085746;28;20461;-95
2022/01/26 04:39:05;;;;;;;31.70;10.73;;;4.60;99.90;;;;;;5064867;28;20477;-94
2022/01/26 04:41:36;;;;;;;;;;;4.60;99.90;;;;;;5084261;28;20031;-92
2022/01/26 04:44:12;;;;;;;28.05;10.93;;;4.60;99.90;;;;;;5082042;28;19937;-95
2022/01/26 04:46:37;;;;;;;30.35;11.00;;;4.60;99.90;;;;;;5077789;28;20032;-95
2022/01/26 04:49:03;;;;;;;29.73;9.75;;;4.60;99.90;;;;;;5079443;28;20032;-95
2022/01/26 04:51:30;;;;;;;29.88;11.77;;;4.70;99.90;;;;;;5079220;28;20153;-94
2022/01/26 04:53:56;;;;;;;29.23;11.63;;;4.70;99.90;;;;;;5080630;28;20028;-95
2022/01/26 04:56:22;;;;;;;26.10;10.93;;;4.70;99.90;;;;;;5081010;28;20017;-95
2022/01/26 04:58:48;;;;;;;23.02;10.55;;;4.70;99.90;;;;;;5080659;28;20039;-96
2022/01/26 05:01:14;;;;;;;26.98;10.75;;;4.80;99.90;;;;;;5080437;28;20028;-95
2022/01/26 05:03:40;;;;;;;27.40;10.73;;;4.80;99.90;;;;;;5080595;28;20043;-94
2022/01/26 05:06:05;;;;;;;26.70;11.05;;;4.80;99.90;;;;;;5080681;28;20508;-95
2022/01/26 05:08:31;;;;;;;25.05;10.75;;;4.80;99.90;;;;;;5081451;28;20047;-95
2022/01/26 05:10:58;;;;;;;27.45;12.05;;;4.90;99.90;;;;;;5083184;28;20150;-94
2022/01/26 05:13:24;;;;;;;23.27;10.93;;;4.90;99.90;;;;;;5082103;28;20032;-94
2022/01/26 05:15:51;;;;;;;25.30;11.00;;;4.90;99.90;;;;;;5080763;28;20532;-93
2022/01/26 05:18:17;;;;;;;29.13;12.18;;;4.90;99.90;;;;;;5078893;28;20048;-93
2022/01/26 05:20:43;;;;;;;24.38;10.65;;;4.90;99.90;;;;;;5080452;28;20052;-94
2022/01/26 05:23:09;;;;;;;36.75;13.30;;;4.90;99.90;;;;;;5079644;28;20075;-94
2022/01/26 05:25:35;;;;;;;37.72;13.98;;;5.00;99.90;;;;;;5088110;28;20075;-94
2022/01/26 05:28:04;;;;;;;34.45;14.48;;;4.90;99.90;;;;;;5110066;28;20032;-94
2022/01/26 05:30:34;;;;;;;32.90;16.08;;;5.00;99.90;;;;;;5104279;28;20067;-94
2022/01/26 05:33:00;;;;;;;31.35;14.30;;;5.00;99.90;;;;;;5085443;28;20059;-95
2022/01/26 05:35:25;;;;;;;32.78;14.85;;;5.00;99.90;;;;;;5087325;28;20024;-95
2022/01/26 05:37:51;;;;;;;40.53;15.23;;;5.00;99.90;;;;;;5088321;28;20040;-95
2022/01/26 05:40:17;;;;;;;31.73;13.88;;;5.00;99.90;;;;;;5090006;28;20040;-95
2022/01/26 05:42:51;;;;;;;39.65;14.20;;;5.00;99.90;;;;;;5093547;28;20015;-94
2022/01/26 05:45:52;;;;;;;35.47;14.07;;;5.00;99.90;;;;;;5114970;28;20027;-94
2022/01/26 05:48:20;;;;;;;38.22;13.88;;;5.00;99.90;;;;;;5113614;28;20024;-95
2022/01/26 05:51:11;;;;;;;42.42;14.80;;;5.00;99.90;;;;;;5098015;28;20068;-94
2022/01/26 05:53:42;;;;;;;38.17;14.18;;;5.00;99.90;;;;;;5096741;28;20029;-95
2022/01/26 05:56:09;;;;;;;;;;;5.00;99.90;;;;;;5094562;28;20039;-95
2022/01/26 05:58:41;;;;;;;34.45;13.40;;;5.00;99.90;;;;;;5113373;28;19908;-94
2022/01/26 06:01:07;;;;;;;33.83;14.45;;;5.10;99.90;;;;;;5078537;28;20473;-95
2022/01/26 06:03:39;;;;;;;42.25;16.52;;;5.00;99.90;;;;;;5094666;28;20024;-94
2022/01/26 06:06:08;;;;;;;32.38;15.30;;;5.00;99.90;;;;;;5092116;28;20027;-94
2022/01/26 06:08:37;;;;;;;40.13;14.63;;;5.00;99.90;;;;;;5100169;28;20038;-95
2022/01/26 06:11:04;;;;;;;33.40;14.65;;;5.00;99.90;;;;;;5102220;28;20034;-94
2022/01/26 06:13:30;;;;;;;36.95;15.50;;;5.00;99.90;;;;;;5116758;28;20037;-95
2022/01/26 06:15:59;;;;;;;38.72;15.13;;;5.00;99.90;;;;;;5100572;28;20040;-95
2022/01/26 06:18:56;;;;;;;44.25;16.95;;;5.00;99.90;;;;;;5115119;28;20036;-96
2022/01/26 06:21:24;;;;;;;45.30;17.08;;;5.00;99.90;;;;;;5099604;28;20029;-96
2022/01/26 06:23:58;;;;;;;39.90;16.97;;;5.00;99.90;;;;;;5096144;28;20025;-95
2022/01/26 06:26:31;;;;;;;36.20;13.95;;;5.00;99.90;;;;;;5068372;28;20039;-95
2022/01/26 06:29:02;;;;;;;44.67;17.35;;;5.10;99.90;;;;;;5079943;28;20025;-96
2022/01/26 06:31:34;;;;;;;35.22;15.68;;;5.10;99.90;;;;;;5062411;28;20029;-96
2022/01/26 06:34:26;;;;;;;36.33;16.58;;;5.10;99.90;;;;;;5076751;28;20019;-95
2022/01/26 06:37:28;;;;;;;39.58;16.35;;;5.10;99.90;;;;;;5094523;28;20094;-95
2022/01/26 06:40:27;;;;;;;40.20;16.90;;;5.20;99.90;;;;;;5090051;28;20070;-95
2022/01/26 06:43:02;;;;;;;35.40;16.20;;;5.20;99.90;;;;;;5080698;28;20025;-94
2022/01/26 06:45:36;;;;;;;37.97;17.00;;;5.20;99.90;;;;;;5097501;28;20039;-95
2022/01/26 06:51:02;;;;;;;37.40;17.13;;;5.20;99.90;;;;;;5097405;28;20092;-94
2022/01/26 06:53:50;;;;;;;34.10;15.90;;;5.20;99.90;;;;;;5080912;28;20302;-94
2022/01/26 06:56:39;;;;;;;34.38;15.32;;;5.20;99.90;;;;;;5096149;28;20020;-96
2022/01/26 06:59:24;;;;;;;36.22;15.43;;;5.20;99.90;;;;;;5069006;28;20029;-95
2022/01/26 07:06:15;;;;;;;40.05;15.05;;;5.20;99.90;;;;;;5099180;28;20555;-95
2022/01/26 07:09:16;;;;;;;38.08;15.38;;;5.10;99.90;;;;;;5099075;28;20064;-95
2022/01/26 07:11:47;;;;;;;33.60;14.05;;;5.10;99.90;;;;;;5062494;28;20025;-95
2022/01/26 07:19:49;;;;;;;38.17;15.80;;;5.10;99.90;;;;;;5097974;28;20048;-95
2022/01/26 07:21:22;;;;;;;29.48;13.32;;;5.10;99.90;;;;;;5098913;28;20031;-95
2022/01/26 07:24:32;;;;;;;28.42;13.05;;;5.00;99.90;;;;;;5098380;28;20100;-96
2022/01/26 07:27:42;;;;;;;;;;;5.00;99.90;;;;;;5082187;28;20036;-95
2022/01/26 07:33:06;;;;;;;28.17;12.80;;;5.00;99.90;;;;;;5458983;22;20052;-94
2022/01/26 07:35:37;;;;;;;27.50;12.63;;;5.00;99.90;;;;;;5077911;28;20020;-95
2022/01/26 07:38:04;;;;;;;;;;;5.00;99.90;;;;;;5057923;28;20131;-95
2022/01/26 07:40:30;;;;;;;30.70;12.05;;;5.00;99.90;;;;;;5097228;28;19984;-95
2022/01/26 07:42:56;;;;;;;28.48;12.30;;;5.00;99.90;;;;;;5062370;28;20054;-94
2022/01/26 07:45:22;;;;;;;25.45;11.63;;;5.00;99.90;;;;;;5061180;28;20052;-94
2022/01/26 07:47:52;;;;;;;27.50;11.68;;;5.00;99.90;;;;;;5077684;28;20088;-95
2022/01/26 07:50:20;;;;;;;30.85;13.65;;;5.00;99.90;;;;;;5062131;28;20135;-93
2022/01/26 07:52:47;;;;;;;34.88;13.80;;;5.00;99.90;;;;;;5058480;28;20134;-94
2022/01/26 07:55:17;;;;;;;33.35;12.63;;;5.00;99.90;;;;;;5065747;28;20020;-94
2022/01/26 07:57:44;;;;;;;32.58;13.65;;;4.90;99.90;;;;;;5059033;28;20382;-95
2022/01/26 08:00:11;;;;;;;27.45;12.50;;;4.90;99.90;;;;;;5048116;28;20027;-95
2022/01/26 08:02:37;;;;;;;27.85;11.68;;;4.90;99.90;;;;;;5053219;28;20054;-94
2022/01/26 08:05:03;;;;;;;33.17;14.23;;;4.90;99.90;;;;;;5051832;28;20489;-93
2022/01/26 08:07:29;;;;;;;31.92;16.50;;;4.90;99.90;;;;;;5050086;28;20042;-93
2022/01/26 08:09:54;;;;;;;29.33;13.85;;;4.90;99.90;;;;;;5057847;28;20115;-94
2022/01/26 08:12:21;;;;;;;38.13;16.25;;;4.90;99.90;;;;;;5049378;28;20067;-94
2022/01/26 08:14:49;;;;;;;34.60;15.25;;;4.90;99.90;;;;;;5053449;28;20024;-95
2022/01/26 08:17:15;;;;;;;32.03;16.77;;;4.90;99.90;;;;;;5057040;28;20115;-94
2022/01/26 08:19:41;;;;;;;25.38;12.45;;;4.90;99.90;;;;;;5061588;28;20378;-96
2022/01/26 08:22:07;;;;;;;26.27;12.48;;;4.90;99.90;;;;;;5058262;28;20088;-95
2022/01/26 08:24:43;;;;;;;23.00;11.05;;;4.90;99.90;;;;;;5061039;28;20082;-94
2022/01/26 08:27:12;;;;;;;23.33;11.60;;;4.90;99.90;;;;;;5062213;28;20059;-95
2022/01/26 08:29:44;;;;;;;20.30;9.77;;;4.90;99.90;;;;;;5064975;28;20016;-95
2022/01/26 08:32:13;;;;;;;26.13;10.55;;;4.90;99.90;;;;;;5072183;28;20060;-94
2022/01/26 08:34:40;;;;;;;27.15;11.35;;;4.90;99.90;;;;;;5062088;28;20029;-94
2022/01/26 08:37:08;;;;;;;25.67;9.88;;;4.90;99.90;;;;;;5074565;28;20037;-94
2022/01/26 08:39:35;;;;;;;21.80;8.25;;;4.90;99.90;;;;;;5079657;28;20028;-95
2022/01/26 08:42:02;;;;;;;33.75;11.68;;;4.90;99.90;;;;;;5068925;28;20025;-94
2022/01/26 08:44:28;;;;;;;23.23;9.35;;;4.90;99.90;;;;;;5050287;28;20030;-94
2022/01/26 08:46:56;;;;;;;22.42;8.63;;;4.90;99.90;;;;;;5042734;28;20017;-94
2022/01/26 08:49:24;;;;;;;21.50;8.30;;;5.00;99.90;;;;;;5048583;28;20024;-94
2022/01/26 08:51:51;;;;;;;21.33;6.72;;;5.00;99.90;;;;;;5050569;28;20406;-94
2022/01/26 08:54:20;;;;;;;24.58;8.15;;;5.00;99.90;;;;;;5062050;28;20035;-94
2022/01/26 08:56:52;;;;;;;17.15;7.82;;;5.00;99.90;;;;;;5065789;28;20056;-94
2022/01/26 08:59:21;;;;;;;21.13;7.25;;;5.10;99.90;;;;;;5070170;28;20029;-94
2022/01/26 09:01:47;;;;;;;16.77;5.05;;;5.00;99.90;;;;;;5043410;28;20033;-92
2022/01/26 09:04:14;;;;;;;18.67;8.13;;;5.10;99.90;;;;;;5047417;28;20163;-91
2022/01/26 09:06:50;;;;;;;18.60;7.82;;;5.10;99.90;;;;;;5047284;28;20025;-92
2022/01/26 09:09:22;;;;;;;14.85;7.03;;;5.20;99.90;;;;;;5050364;28;20060;-93
2022/01/26 09:11:50;;;;;;;19.27;7.03;;;5.20;99.90;;;;;;5031148;28;20186;-94
2022/01/26 09:14:22;;;;;;;22.83;7.95;;;5.20;99.90;;;;;;5048655;28;20021;-93
2022/01/26 09:16:51;;;;;;;23.80;8.18;;;5.30;99.90;;;;;;5042034;28;20025;-92
2022/01/26 09:19:29;;;;;;;17.63;7.22;;;5.30;99.90;;;;;;5047393;28;20484;-91
2022/01/26 09:21:56;;;;;;;18.48;6.45;;;5.40;99.90;;;;;;5047369;28;20029;-92
2022/01/26 09:24:24;;;;;;;17.60;6.88;;;5.40;99.90;;;;;;5043772;28;20052;-93
2022/01/26 09:26:50;;;;;;;19.55;6.18;;;5.50;99.90;;;;;;5052933;28;20024;-91
2022/01/26 09:29:16;;;;;;;17.02;6.75;;;5.50;99.90;;;;;;5045059;28;20021;-91
2022/01/26 09:31:42;;;;;;;19.70;8.77;;;5.60;99.90;;;;;;5048118;28;20048;-91
2022/01/26 09:34:07;;;;;;;14.43;7.43;;;5.60;99.90;;;;;;5053087;28;20037;-91
2022/01/26 09:36:33;;;;;;;14.68;6.18;;;5.70;99.90;;;;;;5046966;28;20108;-92
2022/01/26 09:38:59;;;;;;;15.20;6.32;;;5.70;99.90;;;;;;5046301;28;20029;-91
2022/01/26 09:41:25;;;;;;;17.42;6.32;;;5.80;99.90;;;;;;5049374;28;20028;-93
2022/01/26 09:43:51;;;;;;;16.45;5.88;;;5.80;99.90;;;;;;5046598;28;20082;-93
2022/01/26 09:46:17;;;;;;;14.18;5.20;;;5.90;99.90;;;;;;5040710;28;20029;-92
2022/01/26 09:48:44;;;;;;;17.83;6.53;;;5.90;99.90;;;;;;5040395;28;20032;-94
2022/01/26 09:51:14;;;;;;;16.45;5.80;;;6.00;99.90;;;;;;5057173;28;20090;-92
2022/01/26 09:53:39;;;;;;;15.63;6.43;;;6.00;99.90;;;;;;5068575;28;20035;-92
2022/01/26 09:56:05;;;;;;;16.75;5.70;;;6.10;99.90;;;;;;5069147;28;20029;-93
2022/01/26 09:58:32;;;;;;;15.82;6.15;;;6.10;99.90;;;;;;5048246;28;20104;-95
2022/01/26 10:00:59;;;;;;;16.77;6.00;;;6.20;99.90;;;;;;5040252;28;20033;-93
2022/01/26 10:03:32;;;;;;;17.77;6.50;;;6.20;99.90;;;;;;5038970;28;20029;-93
2022/01/26 10:05:58;;;;;;;15.32;5.60;;;6.30;99.90;;;;;;5040027;28;20227;-93
2022/01/26 10:09:38;;;;;;;13.80;5.70;;;6.30;99.90;;;;;;5054786;28;20025;-93
2022/01/26 10:17:25;;;;;;;18.85;6.13;;;6.50;99.90;;;;;;5075402;28;20031;-94
2022/01/26 10:19:59;;;;;;;14.38;5.22;;;6.50;99.90;;;;;;5055356;28;20033;-95
2022/01/26 10:22:30;;;;;;;12.30;5.72;;;6.60;99.90;;;;;;5060033;28;20054;-94
2022/01/26 10:25:08;;;;;;;10.70;4.35;;;6.70;99.90;;;;;;5061872;28;20489;-93
2022/01/26 10:27:40;;;;;;;12.60;5.80;;;6.70;99.90;;;;;;5051405;28;20029;-93
2022/01/26 10:30:07;;;;;;;14.95;5.43;;;6.80;99.90;;;;;;5059360;28;20082;-92
2022/01/26 10:32:36;;;;;;;23.92;8.25;;;6.90;99.90;;;;;;5059299;28;20055;-95
2022/01/26 10:35:04;;;;;;;18.85;8.30;;;7.00;99.90;;;;;;5059309;28;20021;-92
2022/01/26 10:37:30;;;;;;;26.27;12.80;;;7.10;99.90;;;;;;5061375;28;20097;-92
2022/01/26 10:40:10;;;;;;;13.25;5.53;;;7.20;99.90;;;;;;5058729;28;20052;-91
2022/01/26 10:42:36;;;;;;;8.85;3.85;;;7.30;99.90;;;;;;5059583;28;20115;-92
2022/01/26 10:45:10;;;;;;;8.52;4.28;;;7.40;99.90;;;;;;5055542;28;20083;-91
2022/01/26 10:47:40;;;;;;;15.18;4.90;;;7.60;99.90;;;;;;5046645;28;20056;-91
2022/01/26 10:50:45;;;;;;;14.20;5.10;;;7.70;99.90;;;;;;5051371;28;20382;-93
2022/01/26 10:53:20;;;;;;;10.35;4.07;;;7.70;99.90;;;;;;5066092;28;20303;-92
2022/01/26 10:55:46;;;;;;;11.27;4.47;;;7.90;99.90;;;;;;5047243;28;20029;-93
2022/01/26 10:58:16;;;;;;;9.65;4.30;;;8.00;99.90;;;;;;5046290;28;20024;-92
2022/01/26 11:00:42;;;;;;;7.75;3.95;;;8.20;99.90;;;;;;5046784;28;20475;-93
2022/01/26 11:03:09;;;;;;;11.68;5.05;;;8.40;99.90;;;;;;5043520;28;20180;-92
2022/01/26 11:05:35;;;;;;;9.75;3.90;;;8.60;99.90;;;;;;5056605;28;20031;-92
2022/01/26 11:08:02;;;;;;;10.30;3.53;;;8.90;99.90;;;;;;5051842;28;20112;-93
2022/01/26 11:10:33;;;;;;;9.35;4.35;;;9.30;99.90;;;;;;5056036;28;20082;-93
2022/01/26 11:12:59;;;;;;;;;;;9.70;99.90;;;;;;5057347;28;20070;-92
2022/01/26 11:15:25;;;;;;;10.25;3.97;;;10.10;99.90;;;;;;5057210;28;20357;-92
2022/01/26 11:17:51;;;;;;;9.77;3.50;;;10.40;99.90;;;;;;5056747;28;20033;-91
2022/01/26 11:20:31;;;;;;;8.98;3.22;;;10.70;99.90;;;;;;5057094;28;20016;-92
2022/01/26 11:23:02;;;;;;;6.55;3.10;;;11.00;99.90;;;;;;5076581;28;20037;-91
2022/01/26 11:25:29;;;;;;;;;;;11.00;99.90;;;;;;5068347;28;20021;-95
2022/01/26 11:27:57;;;;;;;8.20;3.22;;;10.90;99.90;;;;;;5067191;28;19915;-94
2022/01/26 11:30:31;;;;;;;9.48;3.60;;;10.70;99.90;;;;;;5068011;28;20047;-95
2022/01/26 11:33:14;;;;;;;6.68;3.10;;;10.40;99.90;;;;;;5079517;28;20087;-94
2022/01/26 11:35:43;;;;;;;12.57;3.47;;;10.20;99.90;;;;;;5079490;28;20028;-93
2022/01/26 11:46:27;;;;;;;8.05;2.90;;;9.60;99.90;;;;;;5078659;28;20060;-92
2022/01/26 11:49:05;;;;;;;5.95;2.75;;;9.50;99.90;;;;;;5060895;28;20119;-93
2022/01/26 11:51:57;;;;;;;8.68;3.47;;;9.50;99.90;;;;;;5060361;28;20052;-93
2022/01/26 11:54:26;;;;;;;9.57;2.83;;;9.40;99.90;;;;;;5057735;28;20129;-94
2022/01/26 11:57:04;;;;;;;9.05;3.15;;;9.40;99.90;;;;;;5058892;28;20025;-93
2022/01/26 11:59:33;;;;;;;4.90;2.55;;;9.40;99.90;;;;;;5059469;28;20016;-94
2022/01/26 12:02:04;;;;;;;11.43;3.83;;;9.30;99.90;;;;;;5057952;28;20032;-93
2022/01/26 12:04:35;;;;;;;11.52;4.28;;;9.20;99.90;;;;;;5059676;28;20024;-94
2022/01/26 12:07:20;;;;;;;9.07;3.75;;;9.30;99.90;;;;;;5058669;28;20032;-89
2022/01/26 12:09:46;;;;;;;8.45;3.70;;;9.40;99.90;;;;;;5051444;28;20032;-93
2022/01/26 12:12:20;;;;;;;9.60;4.15;;;9.70;99.90;;;;;;5045694;28;20508;-93
2022/01/26 12:15:10;;;;;;;9.35;3.88;;;10.20;99.90;;;;;;5038106;28;20039;-93
2022/01/26 12:17:46;;;;;;;12.30;3.78;;;10.70;99.90;;;;;;5037675;28;20498;-93
2022/01/26 12:34:39;;;;;;;5.47;2.60;;;13.20;90.50;;;;;;5057745;28;20064;-93
2022/01/26 12:45:06;;;;;;;8.20;2.40;;;13.60;85.30;;;;;;4993152;28;20034;-93
2022/01/26 12:47:32;;;;;;;5.68;1.77;;;13.50;84.90;;;;;;4993127;28;20316;-93
2022/01/26 12:49:58;;;;;;;7.45;2.97;;;13.40;84.20;;;;;;4992681;28;20523;-92
2022/01/26 12:52:25;;;;;;;10.07;3.50;;;13.20;83.60;;;;;;5007039;28;20739;-93
2022/01/26 12:54:51;;;;;;;3.22;2.00;;;13.40;84.10;;;;;;5012494;28;20026;-94
2022/01/26 12:57:17;;;;;;;9.20;2.70;;;13.60;82.90;;;;;;5012499;28;20041;-94
2022/01/26 12:59:43;;;;;;;5.65;2.20;;;13.80;82.30;;;;;;5012939;28;20045;-94
2022/01/26 13:02:10;;;;;;;4.53;1.90;;;14.10;82.20;;;;;;5012706;28;20057;-93
2022/01/26 13:04:37;;;;;;;8.45;2.88;;;14.30;80.30;;;;;;5013966;28;20558;-96
2022/01/26 13:07:04;;;;;;;8.48;2.63;;;14.40;78.50;;;;;;5013315;28;20034;-95
2022/01/26 13:09:39;;;;;;;4.43;2.22;;;14.40;78.20;;;;;;5013528;28;20034;-94
2022/01/26 13:12:05;;;;;;;6.30;2.08;;;14.20;76.50;;;;;;5014964;28;20044;-96
2022/01/26 13:14:39;;;;;;;15.75;8.13;;;14.20;77.40;;;;;;5013808;28;20049;-95
2022/01/26 13:17:34;;;;;;;17.52;7.65;;;14.10;76.90;;;;;;5021463;28;20030;-96
2022/01/26 13:20:33;;;;;;;10.38;5.68;;;14.30;76.90;;;;;;5032273;28;20029;-96
2022/01/26 13:23:24;;;;;;;5.68;2.30;;;14.50;76.50;;;;;;5073261;28;20028;-95
2022/01/26 13:34:28;;;;;;;5.88;2.78;;;14.20;75.50;;;;;;5083561;28;20113;-96
2022/01/26 13:54:56;;;;;;;14.35;4.60;;;11.20;83.60;;;;;;5090623;28;20039;-96
2022/01/26 14:00:08;;;;;;;11.13;4.47;;;10.60;86.40;;;;;;5090472;28;20047;-96
2022/01/26 14:02:40;;;;;;;11.82;4.47;;;10.40;87.70;;;;;;5069568;28;20059;-95
2022/01/26 14:05:06;;;;;;;13.20;6.13;;;10.30;89.00;;;;;;5070786;28;20032;-96
2022/01/26 14:07:35;;;;;;;13.35;5.05;;;10.20;90.10;;;;;;5072326;28;20028;-96
2022/01/26 14:10:20;;;;;;;14.65;4.43;;;10.30;90.60;;;;;;5070961;28;20020;-95
2022/01/26 14:12:48;;;;;;;13.23;5.13;;;10.50;91.20;;;;;;5090593;28;20117;-96
2022/01/26 14:15:22;;;;;;;15.85;4.57;;;11.00;91.20;;;;;;5068104;28;20063;-96
2022/01/26 14:25:55;;;;;;;53.28;7.45;;;12.90;85.10;;;;;;5091904;28;20059;-96
2022/01/26 14:28:27;;;;;;;14.82;4.05;;;13.00;84.00;;;;;;5089127;28;20024;-96
2022/01/26 14:36:40;;;;;;;14.48;3.97;;;11.70;85.50;;;;;;5087626;28;20031;-96
2022/01/26 15:08:43;;;;;;;14.65;4.88;;;9.40;92.90;;;;;;5091701;28;20032;-96
2022/01/26 15:19:02;;;;;;;9.85;3.33;;;9.00;94.40;;;;;;5061342;28;20050;-95
2022/01/26 15:42:17;;;;;;;12.32;5.60;;;8.60;98.10;;;;;;5084536;28;20425;-96
2022/01/26 15:44:51;;;;;;;14.75;5.30;;;8.60;98.40;;;;;;5080663;28;20485;-95
2022/01/26 15:52:55;;;;;;;15.48;5.05;;;8.50;99.30;;;;;;5056618;28;20116;-95
2022/01/26 15:58:24;;;;;;;17.65;5.70;;;8.40;99.90;;;;;;5073883;28;20048;-95
2022/01/26 16:06:55;;;;;;;21.50;6.72;;;8.30;99.90;;;;;;5063290;28;20056;-96
2022/01/26 16:18:00;;;;;;;16.90;6.45;;;8.20;99.90;;;;;;5063135;28;20039;-95
2022/01/26 16:20:25;;;;;;;16.58;6.32;;;8.10;99.90;;;;;;5066633;28;20033;-95
2022/01/26 18:50:48;;;;;;;16.58;7.43;;;6.70;99.90;;;;;;5020008;28;20466;-93
2022/01/26 18:53:17;;;;;;;13.65;6.65;;;6.70;99.90;;;;;;5011862;28;20034;-93
2022/01/26 18:55:43;;;;;;;20.80;6.80;;;6.60;99.90;;;;;;5004538;28;20091;-94
2022/01/26 18:58:09;;;;;;;17.45;7.35;;;6.60;99.90;;;;;;5000996;28;20030;-93
2022/01/26 19:00:35;;;;;;;17.02;7.15;;;6.60;99.90;;;;;;5006432;28;20030;-93
2022/01/26 19:03:01;;;;;;;15.73;6.03;;;6.60;99.90;;;;;;5003599;28;20030;-93
2022/01/26 19:05:27;;;;;;;18.70;8.60;;;6.60;99.90;;;;;;5003477;28;20026;-93
2022/01/26 19:07:55;;;;;;;17.92;8.15;;;6.60;99.90;;;;;;5017056;28;20034;-93
2022/01/26 19:10:22;;;;;;;16.45;7.57;;;6.50;99.90;;;;;;5021039;28;20026;-93
2022/01/26 19:12:49;;;;;;;20.23;7.55;;;6.50;99.90;;;;;;5002976;28;20487;-93
2022/01/26 19:15:19;;;;;;;16.58;7.25;;;6.50;99.90;;;;;;4999733;28;20089;-93
2022/01/26 19:17:51;;;;;;;17.20;7.10;;;6.50;99.90;;;;;;5000531;28;20034;-93
2022/01/26 19:20:25;;;;;;;20.73;8.30;;;6.50;99.90;;;;;;5000017;28;20026;-93
2022/01/26 19:28:37;;;;;;;18.63;7.57;;;6.50;99.90;;;;;;5017042;28;20101;-93
2022/01/26 19:46:14;;;;;;;17.65;8.98;;;6.50;99.90;;;;;;5001017;28;20034;-92
2022/01/26 19:51:26;;;;;;;26.48;11.23;;;6.60;99.90;;;;;;5015599;28;20482;-93
2022/01/26 19:53:52;;;;;;;18.98;9.40;;;6.60;99.90;;;;;;4997934;28;20057;-93
2022/01/26 19:56:18;;;;;;;24.75;8.40;;;6.60;99.90;;;;;;4989750;28;20224;-91
2022/01/26 19:58:43;;;;;;;17.30;6.57;;;6.70;99.90;;;;;;4981586;28;20503;-91
2022/01/26 20:01:09;;;;;;;19.00;7.75;;;6.80;99.90;;;;;;4987370;28;20032;-90
2022/01/26 20:03:35;;;;;;;13.93;7.07;;;6.80;99.90;;;;;;4991170;28;20052;-91
2022/01/26 20:06:05;;;;;;;16.17;6.22;;;6.90;99.90;;;;;;4991603;28;20034;-91
2022/01/26 20:11:01;;;;;;;14.93;6.68;;;7.00;99.90;;;;;;5014770;28;20125;-91
2022/01/26 20:13:31;;;;;;;16.08;5.85;;;7.00;99.90;;;;;;4991581;28;20109;-91
2022/01/26 20:16:00;;;;;;;14.40;6.68;;;7.00;99.90;;;;;;4997671;28;20019;-93
2022/01/26 20:18:36;;;;;;;14.00;5.78;;;7.10;99.90;;;;;;4992986;28;20116;-93
2022/01/26 20:21:02;;;;;;;15.68;5.22;;;7.10;99.90;;;;;;4990789;28;20036;-91